createdAt,value
2018-08-19T00:15:51.643Z,94801.86
2018-08-19T01:45:50.480Z,94793.84
2018-08-19T02:00:50.138Z,94793.27
2018-08-19T02:15:50.079Z,94799.92
2018-08-19T02:30:55.204Z,94801.05
2018-08-19T02:45:49.487Z,94814.45
2018-08-19T03:00:52.602Z,94805.58
2018-08-19T03:15:54.707Z,94816.72
2018-08-19T03:30:54.479Z,94816.10
2018-08-19T03:45:50.336Z,94832.58
2018-08-19T04:00:50.990Z,94843.94
2018-08-19T04:15:51.008Z,94847.77
2018-08-19T04:30:50.975Z,94861.38
2018-08-19T04:45:51.115Z,94853.12
2018-08-19T05:00:51.472Z,94863.25
2018-08-19T05:15:51.472Z,94868.75
2018-08-19T05:30:51.435Z,94860.52
2018-08-19T05:45:56.376Z,94871.15
2018-08-19T06:00:59.432Z,94877.75
2018-08-19T06:15:50.979Z,94882.07
2018-08-19T06:30:56.865Z,94881.17
2018-08-19T06:45:50.286Z,94882.19
2018-08-19T07:00:53.231Z,94880.05
2018-08-19T07:15:51.223Z,94882.25
2018-08-19T07:30:53.238Z,94882.48
2018-08-19T10:45:51.487Z,94804.83
2018-08-19T12:15:51.301Z,94721.97
2018-08-19T12:30:51.251Z,94714.34
2018-08-19T12:45:51.628Z,94705.16
2018-08-19T13:00:50.680Z,94696.37
2018-08-19T13:15:50.595Z,94730.18
2018-08-19T13:30:50.598Z,94729.41
2018-08-19T13:45:50.621Z,94731.59
2018-08-19T14:00:51.024Z,94717.09
2018-08-19T14:15:51.019Z,94695.95
2018-08-19T14:30:57.051Z,94688.77
2018-08-19T14:45:50.491Z,94686.59
2018-08-19T15:00:51.435Z,94677.02
2018-08-19T15:15:51.443Z,94664.61
2018-08-19T15:30:51.449Z,94650.86
2018-08-19T15:45:51.483Z,94651.36
2018-08-19T16:00:50.879Z,94646.42
2018-08-19T16:15:50.897Z,94661.84
2018-08-19T16:30:50.824Z,94660.22
2018-08-19T16:45:55.324Z,94686.65
2018-08-19T17:00:53.493Z,94702.04
2018-08-19T17:15:51.291Z,94697.53
2018-08-19T17:30:53.560Z,94708.70
2018-08-19T17:45:51.422Z,94714.48
2018-08-19T18:00:50.755Z,94727.13
2018-08-19T18:15:50.653Z,94722.58
2018-08-19T18:30:58.763Z,94729.48
2018-08-19T18:45:50.766Z,94721.80
2018-08-19T19:00:54.639Z,94725.25
2018-08-19T19:15:51.008Z,94724.27
2018-08-19T19:30:58.511Z,94725.08
2018-08-19T19:45:53.111Z,94721.98
2018-08-19T20:00:55.463Z,94717.55
2018-08-19T20:15:50.503Z,94717.17
2018-08-19T20:30:51.443Z,94718.71
2018-08-19T20:45:51.460Z,94727.73
2018-08-19T21:00:51.388Z,94738.12
2018-08-19T21:15:54.119Z,94741.58
2018-08-19T21:30:50.821Z,94733.47
2018-08-19T21:45:52.405Z,94729.84
2018-08-19T22:00:59.240Z,94728.29
2018-08-19T22:15:51.226Z,94713.48
2018-08-19T22:30:51.278Z,94706.58
2018-08-19T22:45:51.191Z,94688.50
2018-08-19T23:00:50.682Z,94692.34
2018-08-19T23:15:50.653Z,94690.61
2018-08-19T23:30:50.845Z,94693.30
2018-08-19T23:45:50.599Z,94683.67
